Terminal Aerodrome Forecast
Issued by NWS Upton, NY

Home | Current Version | Previous Version | Text Only | Print | Product List | Glossary On
Versions: 1 2 3 4 5 6 7 8 9 10 11 12 13 14 15 16 17 18 19 20 21 22 23 24 25 26 27 28 29 30 31 32 33
000
FTUS41 KOKX 102300
TAFJFK
TAF
KJFK 102335Z 1100/1206 14007KT P6SM SCT050 SCT100
     FM110500 VRB03KT P6SM FEW050
     FM110900 03006KT P6SM FEW050
     FM111400 05008KT P6SM FEW050
     FM111800 12009KT P6SM FEW050
     FM112000 15010KT P6SM FEW050
     FM120000 15006KT P6SM SKC=

USA.gov is the U.S. government's official web portal to all federal, state and local government web resources and services.